createdAt,value
2018-03-16T00:00:25.294Z,0.00
2018-03-16T00:02:18.594Z,0.00
2018-03-16T00:03:18.554Z,0.00
2018-03-16T00:05:11.879Z,0.00
2018-03-16T00:06:11.837Z,0.00
2018-03-16T00:08:05.140Z,0.00
2018-03-16T00:09:05.184Z,0.00
2018-03-16T00:10:59.411Z,0.00
2018-03-16T00:11:59.364Z,0.00
2018-03-16T00:13:52.675Z,0.00
2018-03-16T00:14:52.618Z,0.00
2018-03-16T00:16:46.962Z,0.00
2018-03-16T00:17:46.883Z,0.00
2018-03-16T00:19:41.222Z,0.00
2018-03-16T00:20:41.155Z,0.00
2018-03-16T00:22:34.459Z,0.00
2018-03-16T00:23:34.413Z,0.00
2018-03-16T00:25:27.734Z,0.00
2018-03-16T00:26:27.674Z,0.00
2018-03-16T00:28:20.976Z,0.00
2018-03-16T00:29:20.934Z,0.00
2018-03-16T00:31:14.249Z,0.00
2018-03-16T00:32:14.204Z,0.00
2018-03-16T00:34:07.512Z,0.00
2018-03-16T00:35:07.475Z,0.00
2018-03-16T00:37:00.794Z,0.00
2018-03-16T00:38:00.734Z,0.00
2018-03-16T00:39:55.058Z,0.00
2018-03-16T00:40:55.018Z,0.00
2018-03-16T00:42:49.310Z,0.00
2018-03-16T00:43:49.270Z,0.00
2018-03-16T00:45:42.623Z,0.00
2018-03-16T00:46:42.565Z,0.00
2018-03-16T00:48:35.874Z,0.00
2018-03-16T00:49:35.836Z,0.00
2018-03-16T00:51:29.160Z,0.00
2018-03-16T00:52:29.101Z,0.00
2018-03-16T00:54:22.404Z,0.00
2018-03-16T00:55:22.360Z,0.00
2018-03-16T00:57:15.798Z,0.00
2018-03-16T00:58:15.715Z,0.00
2018-03-16T01:00:09.033Z,0.00
2018-03-16T01:01:08.991Z,0.00
2018-03-16T01:03:02.358Z,0.00
2018-03-16T01:04:02.258Z,0.00
2018-03-16T01:05:55.570Z,0.00
2018-03-16T01:06:55.524Z,0.00
2018-03-16T01:08:49.830Z,0.00
2018-03-16T01:09:49.779Z,0.00
2018-03-16T01:11:43.105Z,0.00
2018-03-16T01:12:43.049Z,0.00
2018-03-16T01:14:37.474Z,0.00
2018-03-16T01:15:37.385Z,0.00
2018-03-16T01:17:30.704Z,0.00
2018-03-16T01:18:30.650Z,0.00
2018-03-16T01:20:24.955Z,0.00
2018-03-16T01:21:24.916Z,0.00
2018-03-16T01:23:19.406Z,0.00
2018-03-16T01:24:19.186Z,0.00
2018-03-16T01:26:12.519Z,0.00
2018-03-16T01:27:12.456Z,0.00
2018-03-16T01:29:05.899Z,0.00
2018-03-16T01:30:05.731Z,0.00
2018-03-16T01:31:59.145Z,0.00
2018-03-16T01:32:59.005Z,0.00
2018-03-16T01:34:53.324Z,0.00
2018-03-16T01:35:53.274Z,0.00
2018-03-16T01:37:46.588Z,0.00
2018-03-16T01:38:46.530Z,0.00
2018-03-16T01:40:40.037Z,0.00
2018-03-16T01:41:39.854Z,0.00
2018-03-16T01:43:33.372Z,0.00
2018-03-16T01:44:33.324Z,0.00
2018-03-16T01:46:26.645Z,0.00
2018-03-16T01:47:26.589Z,0.00
2018-03-16T01:49:20.909Z,0.00
2018-03-16T01:50:20.860Z,0.00
2018-03-16T01:52:14.182Z,0.00
2018-03-16T01:53:14.124Z,0.00
2018-03-16T01:55:07.474Z,0.00
2018-03-16T01:56:07.514Z,0.00
2018-03-16T01:58:00.732Z,0.00
2018-03-16T01:59:00.672Z,0.00
2018-03-16T02:00:53.975Z,0.00
2018-03-16T02:01:53.935Z,0.00
2018-03-16T02:03:47.295Z,0.00
2018-03-16T02:04:47.278Z,0.00
2018-03-16T02:06:40.546Z,0.00
2018-03-16T02:07:40.486Z,0.00
2018-03-16T02:09:33.802Z,0.00
2018-03-16T02:10:33.745Z,0.00
2018-03-16T02:12:27.066Z,0.00
2018-03-16T02:13:27.019Z,0.00
2018-03-16T02:15:20.305Z,0.00
2018-03-16T02:16:20.266Z,0.00
2018-03-16T02:18:13.591Z,0.00
2018-03-16T02:19:13.539Z,0.00
2018-03-16T02:21:06.881Z,0.00
2018-03-16T02:22:06.824Z,0.00
2018-03-16T02:24:01.130Z,0.00
2018-03-16T02:25:01.087Z,0.00
2018-03-16T02:26:54.570Z,0.00
2018-03-16T02:27:54.481Z,0.00
2018-03-16T02:29:48.770Z,0.00
2018-03-16T02:30:48.749Z,0.00
2018-03-16T02:32:43.068Z,0.00
2018-03-16T02:33:43.016Z,0.00
2018-03-16T02:35:36.462Z,0.00
2018-03-16T02:36:36.327Z,0.00
2018-03-16T02:38:29.638Z,0.00
2018-03-16T02:39:29.585Z,0.00
2018-03-16T02:41:22.920Z,0.00
2018-03-16T02:42:22.850Z,0.00
2018-03-16T02:44:16.158Z,0.00
2018-03-16T02:45:16.123Z,0.00
2018-03-16T02:47:09.453Z,0.00
2018-03-16T02:48:09.412Z,0.00
2018-03-16T02:50:02.699Z,0.00
2018-03-16T02:51:02.662Z,0.00
2018-03-16T02:52:57.118Z,0.00
2018-03-16T02:53:56.961Z,0.00
2018-03-16T02:55:51.257Z,0.00
2018-03-16T02:56:51.216Z,0.00
2018-03-16T02:58:44.562Z,0.00
2018-03-16T02:59:44.489Z,0.00
2018-03-16T03:01:38.839Z,0.00
2018-03-16T03:02:38.755Z,0.00
2018-03-16T03:04:33.068Z,0.00
2018-03-16T03:05:33.022Z,0.00
2018-03-16T03:07:26.451Z,0.00
2018-03-16T03:08:26.292Z,0.00
2018-03-16T03:10:20.609Z,0.00
2018-03-16T03:11:20.553Z,0.00
2018-03-16T03:13:13.880Z,0.00
2018-03-16T03:14:13.821Z,0.00
2018-03-16T03:16:08.137Z,0.00
2018-03-16T03:17:08.077Z,0.00
2018-03-16T03:19:01.447Z,0.00
2018-03-16T03:20:01.350Z,0.00
2018-03-16T03:21:54.670Z,0.00
2018-03-16T03:22:54.617Z,0.00
2018-03-16T03:24:48.961Z,0.00
2018-03-16T03:25:48.902Z,0.00
2018-03-16T03:27:42.337Z,0.00
2018-03-16T03:28:42.162Z,0.00
2018-03-16T03:30:35.489Z,0.00
2018-03-16T03:31:35.433Z,0.00
2018-03-16T03:33:29.755Z,0.00
2018-03-16T03:34:29.683Z,0.00
2018-03-16T03:36:24.007Z,0.00
2018-03-16T03:37:23.957Z,0.00
2018-03-16T03:39:17.282Z,0.00
2018-03-16T03:40:17.216Z,0.00
2018-03-16T03:42:10.571Z,0.00
2018-03-16T03:43:10.508Z,0.00
2018-03-16T03:45:03.834Z,0.00
2018-03-16T03:46:03.763Z,0.00
2018-03-16T03:47:57.083Z,0.00
2018-03-16T03:48:57.042Z,0.00
2018-03-16T03:50:50.372Z,0.00
2018-03-16T03:51:50.314Z,0.00
2018-03-16T03:53:43.639Z,0.00
2018-03-16T03:54:43.580Z,0.00
2018-03-16T03:56:36.894Z,0.00
2018-03-16T03:57:36.840Z,0.00
2018-03-16T03:59:31.182Z,0.00
2018-03-16T04:00:31.137Z,0.00
2018-03-16T04:02:25.432Z,0.00
2018-03-16T04:03:25.378Z,0.00
2018-03-16T04:05:18.710Z,0.00
2018-03-16T04:06:18.651Z,0.00
2018-03-16T04:08:11.959Z,0.00
2018-03-16T04:09:11.948Z,0.00
2018-03-16T04:11:05.288Z,0.00
2018-03-16T04:12:05.210Z,0.00
2018-03-16T04:13:59.514Z,0.00
2018-03-16T04:14:59.485Z,0.00
2018-03-16T04:16:52.827Z,0.00
2018-03-16T04:17:52.767Z,0.00
2018-03-16T04:19:46.158Z,0.00
2018-03-16T04:20:46.028Z,0.00
2018-03-16T04:22:40.356Z,0.00
2018-03-16T04:23:40.293Z,0.00
2018-03-16T04:25:34.603Z,0.00
2018-03-16T04:26:34.555Z,0.00
2018-03-16T04:28:28.992Z,0.00
2018-03-16T04:29:28.835Z,0.00
2018-03-16T04:31:23.159Z,0.00
2018-03-16T04:32:23.098Z,0.00
2018-03-16T04:34:16.538Z,0.00
2018-03-16T04:35:16.367Z,0.00
2018-03-16T04:37:09.765Z,0.00
2018-03-16T04:38:09.634Z,0.00
2018-03-16T04:40:02.956Z,0.00
2018-03-16T04:41:02.923Z,0.00
2018-03-16T04:42:56.243Z,0.00
2018-03-16T04:43:56.193Z,0.00
2018-03-16T04:45:49.564Z,0.00
2018-03-16T04:46:49.458Z,0.00
2018-03-16T04:48:42.788Z,0.00
2018-03-16T04:49:42.743Z,0.00
2018-03-16T04:51:36.052Z,0.00
2018-03-16T04:52:35.993Z,0.00
2018-03-16T04:54:29.368Z,0.00
2018-03-16T04:55:29.273Z,0.00
2018-03-16T04:57:22.593Z,0.00
2018-03-16T04:58:22.528Z,0.00
2018-03-16T05:00:16.833Z,0.00
2018-03-16T05:01:16.796Z,0.00
2018-03-16T05:03:11.193Z,0.00
2018-03-16T05:04:11.047Z,0.00
2018-03-16T05:06:04.373Z,0.00
2018-03-16T05:07:04.329Z,0.00
2018-03-16T05:08:57.675Z,0.00
2018-03-16T05:09:57.598Z,0.00
2018-03-16T05:11:52.030Z,0.00
2018-03-16T05:12:51.863Z,0.00
2018-03-16T05:14:45.169Z,0.00
2018-03-16T05:15:45.165Z,0.00
2018-03-16T05:17:39.465Z,0.00
2018-03-16T05:18:39.391Z,0.00
2018-03-16T05:20:32.837Z,0.00
2018-03-16T05:21:32.674Z,0.00
2018-03-16T05:23:25.989Z,0.00
2018-03-16T05:24:25.934Z,0.00
2018-03-16T05:26:19.264Z,0.00
2018-03-16T05:27:19.198Z,4.00
2018-03-16T05:29:12.510Z,4.00
2018-03-16T05:30:12.463Z,0.00
2018-03-16T05:32:06.910Z,4.00
2018-03-16T05:33:06.735Z,4.00
2018-03-16T05:35:01.079Z,8.00
2018-03-16T05:36:00.999Z,8.00
2018-03-16T05:37:55.446Z,8.00
2018-03-16T05:38:55.250Z,12.00
2018-03-16T05:40:48.617Z,16.00
2018-03-16T05:41:48.552Z,20.00
2018-03-16T05:43:41.914Z,20.00
2018-03-16T05:44:41.869Z,24.00
2018-03-16T05:46:35.275Z,28.00
2018-03-16T05:47:35.137Z,32.00
2018-03-16T05:49:28.435Z,32.00
2018-03-16T05:50:28.399Z,32.00
2018-03-16T05:52:21.716Z,40.00
2018-03-16T05:53:21.661Z,44.00
2018-03-16T05:55:15.034Z,52.00
2018-03-16T05:56:14.925Z,60.00
2018-03-16T05:58:08.256Z,72.00
2018-03-16T05:59:08.199Z,80.00
2018-03-16T06:01:01.490Z,92.00
2018-03-16T06:02:01.461Z,96.00
2018-03-16T06:03:54.924Z,104.00
2018-03-16T06:04:54.751Z,112.00
2018-03-16T06:06:48.085Z,128.00
2018-03-16T06:07:48.015Z,140.00
2018-03-16T06:09:41.331Z,160.00
2018-03-16T06:10:41.298Z,172.00
2018-03-16T06:12:35.715Z,180.00
2018-03-16T06:13:35.549Z,188.00
2018-03-16T06:15:28.866Z,208.00
2018-03-16T06:16:28.816Z,216.00
2018-03-16T06:18:22.160Z,232.00
2018-03-16T06:19:22.099Z,240.00
2018-03-16T06:21:15.500Z,252.00
2018-03-16T06:22:15.360Z,260.00
2018-03-16T06:24:09.687Z,276.00
2018-03-16T06:25:09.621Z,280.00
2018-03-16T06:27:02.945Z,288.00
2018-03-16T06:28:02.926Z,288.00
2018-03-16T06:29:56.243Z,296.00
2018-03-16T06:30:56.175Z,292.00
2018-03-16T06:32:49.492Z,284.00
2018-03-16T06:33:49.452Z,272.00
2018-03-16T06:35:42.743Z,244.00
2018-03-16T06:36:42.715Z,240.00
2018-03-16T06:38:37.158Z,252.00
2018-03-16T06:39:36.970Z,244.00
2018-03-16T06:41:31.286Z,240.00
2018-03-16T06:42:31.242Z,248.00
2018-03-16T06:44:24.576Z,268.00
2018-03-16T06:45:24.510Z,284.00
2018-03-16T06:47:17.832Z,308.00
2018-03-16T06:48:17.777Z,316.00
2018-03-16T06:50:11.290Z,336.00
2018-03-16T06:51:11.046Z,332.00
2018-03-16T06:53:05.348Z,332.00
2018-03-16T06:54:05.306Z,340.00
2018-03-16T06:55:58.660Z,356.00
2018-03-16T06:56:58.604Z,360.00
2018-03-16T06:58:51.925Z,360.00
2018-03-16T06:59:51.868Z,372.00
2018-03-16T07:01:45.181Z,396.00
2018-03-16T07:02:45.138Z,404.00
2018-03-16T07:04:38.619Z,416.00
2018-03-16T07:05:38.424Z,420.00
2018-03-16T07:07:31.709Z,452.00
2018-03-16T07:08:31.689Z,480.00
2018-03-16T07:10:25.000Z,532.00
2018-03-16T07:11:24.945Z,556.00
2018-03-16T07:13:19.317Z,584.00
2018-03-16T07:14:19.217Z,580.00
2018-03-16T07:16:12.565Z,564.00
2018-03-16T07:17:12.489Z,564.00
2018-03-16T07:19:06.817Z,556.00
2018-03-16T07:20:06.752Z,544.00
2018-03-16T07:22:00.056Z,520.00
2018-03-16T07:23:00.012Z,520.00
2018-03-16T07:24:54.338Z,504.00
2018-03-16T07:25:54.273Z,496.00
2018-03-16T07:27:47.594Z,508.00
2018-03-16T07:28:47.564Z,524.00
2018-03-16T07:30:40.916Z,600.00
2018-03-16T07:31:40.851Z,656.00
2018-03-16T07:33:34.131Z,776.00
2018-03-16T07:34:34.097Z,832.00
2018-03-16T07:36:28.429Z,908.00
2018-03-16T07:37:28.377Z,940.00
2018-03-16T07:39:22.686Z,1016.00
2018-03-16T07:40:22.646Z,1056.00
2018-03-16T07:42:15.972Z,1108.00
2018-03-16T07:43:15.932Z,1140.00
2018-03-16T07:45:10.232Z,1164.00
2018-03-16T07:46:10.167Z,1180.00
2018-03-16T07:48:03.483Z,1216.00
2018-03-16T07:49:03.444Z,1240.00
2018-03-16T07:50:56.387Z,1292.00
2018-03-16T07:51:56.335Z,1316.00
2018-03-16T07:53:49.148Z,1304.00
2018-03-16T07:54:49.112Z,1256.00
2018-03-16T07:56:42.055Z,1152.00
2018-03-16T07:57:41.999Z,1116.00
2018-03-16T07:59:34.806Z,1084.00
2018-03-16T08:00:34.775Z,1096.00
2018-03-16T08:02:27.722Z,1160.00
2018-03-16T08:03:27.668Z,1204.00
2018-03-16T08:05:20.999Z,1304.00
2018-03-16T08:06:20.942Z,1360.00
2018-03-16T08:08:14.257Z,1432.00
2018-03-16T08:09:14.212Z,1460.00
2018-03-16T08:11:07.581Z,1568.00
2018-03-16T08:12:07.494Z,1648.00
2018-03-16T08:14:00.803Z,1808.00
2018-03-16T08:15:00.762Z,1888.00
2018-03-16T08:16:55.078Z,2028.00
2018-03-16T08:17:55.038Z,2048.00
2018-03-16T08:19:48.337Z,2184.00
2018-03-16T08:20:48.289Z,2300.00
2018-03-16T08:22:41.607Z,2444.00
2018-03-16T08:23:41.563Z,2464.00
2018-03-16T08:25:34.882Z,2344.00
2018-03-16T08:26:35.022Z,2324.00
2018-03-16T08:28:28.225Z,2328.00
2018-03-16T08:29:28.127Z,2348.00
2018-03-16T08:31:21.428Z,2392.00
2018-03-16T08:32:21.398Z,2404.00
2018-03-16T08:34:14.710Z,2500.00
2018-03-16T08:35:14.667Z,2552.00
2018-03-16T08:37:08.024Z,2532.00
2018-03-16T08:38:07.968Z,2492.00
2018-03-16T08:40:01.251Z,2448.00
2018-03-16T08:41:01.222Z,2456.00
2018-03-16T08:42:54.558Z,2440.00
2018-03-16T08:43:54.495Z,2412.00
2018-03-16T08:45:47.813Z,2324.00
2018-03-16T08:46:47.768Z,2268.00
2018-03-16T08:48:41.113Z,2184.00
2018-03-16T08:49:41.058Z,2160.00
2018-03-16T08:51:34.367Z,2088.00
2018-03-16T08:52:34.304Z,2024.00
2018-03-16T08:54:27.673Z,1928.00
2018-03-16T08:55:27.587Z,1932.00
2018-03-16T08:57:20.894Z,2016.00
2018-03-16T08:58:20.863Z,2100.00
2018-03-16T09:00:14.208Z,2152.00
2018-03-16T09:01:14.135Z,2116.00
2018-03-16T09:03:08.543Z,2000.00
2018-03-16T09:04:08.421Z,1940.00
2018-03-16T09:06:01.764Z,1868.00
2018-03-16T09:07:01.707Z,1844.00
2018-03-16T09:08:55.023Z,1824.00
2018-03-16T09:09:54.972Z,1832.00
2018-03-16T09:11:48.288Z,1864.00
2018-03-16T09:12:48.234Z,1900.00
2018-03-16T09:14:41.687Z,2000.00
2018-03-16T09:15:41.509Z,2064.00
2018-03-16T09:17:34.814Z,2208.00
2018-03-16T09:18:34.767Z,2284.00
2018-03-16T09:20:28.113Z,2444.00
2018-03-16T09:21:28.049Z,2492.00
2018-03-16T09:23:21.421Z,2504.00
2018-03-16T09:24:21.318Z,2500.00
2018-03-16T09:26:14.638Z,2484.00
2018-03-16T09:27:14.608Z,2488.00
2018-03-16T09:29:07.971Z,2536.00
2018-03-16T09:30:07.871Z,2604.00
2018-03-16T09:32:01.210Z,2764.00
2018-03-16T09:33:01.140Z,2844.00
2018-03-16T09:34:54.487Z,2952.00
2018-03-16T09:35:54.416Z,2980.00
2018-03-16T09:37:47.722Z,3040.00
2018-03-16T09:38:47.694Z,3108.00
2018-03-16T09:40:41.005Z,3264.00
2018-03-16T09:41:40.963Z,3332.00
2018-03-16T09:43:34.259Z,3456.00
2018-03-16T09:44:34.231Z,3536.00
2018-03-16T09:46:28.583Z,3660.00
2018-03-16T09:47:28.495Z,3772.00
2018-03-16T09:49:21.855Z,4108.00
2018-03-16T09:50:21.770Z,4240.00
2018-03-16T09:52:15.081Z,4464.00
2018-03-16T09:53:15.050Z,4664.00
2018-03-16T09:55:08.538Z,5256.00
2018-03-16T09:56:08.332Z,5620.00
2018-03-16T09:58:01.633Z,6148.00
2018-03-16T09:59:01.602Z,6256.00
2018-03-16T10:00:54.924Z,6028.00
2018-03-16T10:01:54.871Z,5724.00
2018-03-16T10:03:48.180Z,5152.00
2018-03-16T10:04:48.149Z,4832.00
2018-03-16T10:06:41.475Z,4496.00
2018-03-16T10:07:41.407Z,4424.00
2018-03-16T10:09:34.723Z,4364.00
2018-03-16T10:10:34.695Z,4276.00
2018-03-16T10:12:28.189Z,3976.00
2018-03-16T10:13:27.961Z,3804.00
2018-03-16T10:15:21.284Z,3560.00
2018-03-16T10:16:21.222Z,3496.00
2018-03-16T10:18:14.560Z,3404.00
2018-03-16T10:19:14.506Z,3336.00
2018-03-16T10:21:07.999Z,3172.00
2018-03-16T10:22:07.777Z,3116.00
2018-03-16T10:24:01.105Z,3108.00
2018-03-16T10:25:01.055Z,3148.00
2018-03-16T10:26:54.378Z,3260.00
2018-03-16T10:27:54.326Z,3316.00
2018-03-16T10:29:47.737Z,3396.00
2018-03-16T10:30:47.619Z,3420.00
2018-03-16T10:32:40.935Z,3400.00
2018-03-16T10:33:40.885Z,3380.00
2018-03-16T10:35:34.203Z,3264.00
2018-03-16T10:36:34.160Z,3216.00
2018-03-16T10:38:27.485Z,2976.00
2018-03-16T10:39:27.418Z,2832.00
2018-03-16T10:41:20.736Z,3000.00
2018-03-16T10:42:20.724Z,3044.00
2018-03-16T10:44:14.011Z,3024.00
2018-03-16T10:45:13.952Z,3016.00
2018-03-16T10:47:07.483Z,3020.00
2018-03-16T10:48:07.266Z,3016.00
2018-03-16T10:50:00.606Z,2936.00
2018-03-16T10:51:00.553Z,2820.00
2018-03-16T10:52:53.874Z,2768.00
2018-03-16T10:53:53.840Z,2656.00
2018-03-16T10:55:47.177Z,2812.00
2018-03-16T10:56:47.100Z,2680.00
2018-03-16T10:58:40.420Z,2728.00
2018-03-16T10:59:40.384Z,2924.00
2018-03-16T11:01:33.699Z,3188.00
2018-03-16T11:02:33.703Z,3176.00
2018-03-16T11:04:28.591Z,3096.00
2018-03-16T11:05:26.917Z,3052.00
2018-03-16T11:07:20.334Z,3032.00
2018-03-16T11:08:20.210Z,3012.00
2018-03-16T11:10:13.533Z,3072.00
2018-03-16T11:11:13.488Z,3124.00
2018-03-16T11:13:06.787Z,3184.00
2018-03-16T11:14:06.757Z,3232.00
2018-03-16T11:16:00.077Z,3352.00
2018-03-16T11:17:00.011Z,3400.00
2018-03-16T11:18:53.322Z,3576.00
2018-03-16T11:19:53.282Z,3648.00
2018-03-16T11:21:46.692Z,3804.00
2018-03-16T11:22:46.582Z,3860.00
2018-03-16T11:24:39.881Z,3980.00
2018-03-16T11:25:39.846Z,4008.00
2018-03-16T11:27:33.174Z,4052.00
2018-03-16T11:28:33.103Z,4144.00
2018-03-16T11:30:26.488Z,4252.00
2018-03-16T11:31:26.393Z,4320.00
2018-03-16T11:33:19.701Z,4508.00
2018-03-16T11:34:19.652Z,4516.00
2018-03-16T11:36:12.987Z,4464.00
2018-03-16T11:37:12.936Z,4412.00
2018-03-16T11:39:07.379Z,4212.00
2018-03-16T11:40:07.201Z,4252.00
2018-03-16T11:42:01.525Z,4104.00
2018-03-16T11:43:01.481Z,4080.00
2018-03-16T11:44:54.813Z,3976.00
2018-03-16T11:45:54.782Z,3860.00
2018-03-16T11:47:48.192Z,3748.00
2018-03-16T11:48:48.048Z,3692.00
2018-03-16T11:50:42.365Z,3708.00
2018-03-16T11:51:42.314Z,3804.00
2018-03-16T11:53:35.623Z,4236.00
2018-03-16T11:54:35.610Z,4372.00
2018-03-16T11:56:30.104Z,4740.00
2018-03-16T11:57:29.893Z,4728.00
2018-03-16T11:59:23.198Z,4264.00
2018-03-16T12:00:23.166Z,4572.00
2018-03-16T12:02:16.501Z,4840.00
2018-03-16T12:03:16.451Z,4732.00
2018-03-16T12:05:09.796Z,4868.00
2018-03-16T12:06:09.714Z,4744.00
2018-03-16T12:08:03.048Z,4216.00
2018-03-16T12:09:02.996Z,4080.00
2018-03-16T12:10:56.317Z,3860.00
2018-03-16T12:11:56.273Z,3952.00
2018-03-16T12:13:49.580Z,3500.00
2018-03-16T12:14:49.553Z,3308.00
2018-03-16T12:16:42.863Z,3052.00
2018-03-16T12:17:42.808Z,3044.00
2018-03-16T12:19:36.141Z,2588.00
2018-03-16T12:20:36.093Z,2404.00
2018-03-16T12:22:29.497Z,2136.00
2018-03-16T12:23:29.387Z,2056.00
2018-03-16T12:25:22.668Z,1920.00
2018-03-16T12:26:22.647Z,1788.00
2018-03-16T12:28:15.975Z,1428.00
2018-03-16T12:29:15.896Z,1312.00
2018-03-16T12:31:09.288Z,1296.00
2018-03-16T12:32:09.214Z,1464.00
2018-03-16T12:34:02.542Z,1952.00
2018-03-16T12:35:02.492Z,2284.00
2018-03-16T12:36:55.823Z,2440.00
2018-03-16T12:37:55.757Z,2584.00
2018-03-16T12:39:49.098Z,3080.00
2018-03-16T12:40:49.031Z,3256.00
2018-03-16T12:42:42.365Z,3324.00
2018-03-16T12:43:42.316Z,3224.00
2018-03-16T12:45:35.623Z,3304.00
2018-03-16T12:46:35.582Z,3220.00
2018-03-16T12:48:29.037Z,3440.00
2018-03-16T12:49:28.835Z,3708.00
2018-03-16T12:51:23.221Z,3912.00
2018-03-16T12:52:23.112Z,4060.00
2018-03-16T12:54:16.453Z,4304.00
2018-03-16T12:55:16.397Z,4400.00
2018-03-16T12:57:09.759Z,4476.00
2018-03-16T12:58:09.649Z,4196.00
2018-03-16T13:00:02.967Z,4324.00
2018-03-16T13:01:02.923Z,3712.00
2018-03-16T13:02:56.247Z,3100.00
2018-03-16T13:03:56.198Z,2876.00
2018-03-16T13:05:49.548Z,4532.00
2018-03-16T13:06:49.478Z,5184.00
2018-03-16T13:08:42.794Z,4200.00
2018-03-16T13:09:42.729Z,4108.00
2018-03-16T13:11:36.064Z,4716.00
2018-03-16T13:12:35.998Z,4996.00
2018-03-16T13:14:29.543Z,5196.00
2018-03-16T13:15:29.326Z,5296.00
2018-03-16T13:17:22.621Z,4852.00
2018-03-16T13:18:22.591Z,4852.00
2018-03-16T13:20:16.924Z,4712.00
2018-03-16T13:21:16.869Z,5164.00
2018-03-16T13:23:11.266Z,5680.00
2018-03-16T13:24:11.145Z,5752.00
2018-03-16T13:26:05.563Z,6076.00
2018-03-16T13:27:05.410Z,6444.00
2018-03-16T13:28:58.716Z,4388.00
2018-03-16T13:29:58.673Z,3124.00
2018-03-16T13:31:52.079Z,2300.00
2018-03-16T13:32:51.948Z,2056.00
2018-03-16T13:34:45.265Z,3348.00
2018-03-16T13:35:45.219Z,4088.00
2018-03-16T13:37:38.580Z,5188.00
2018-03-16T13:38:38.485Z,5836.00
2018-03-16T13:40:32.863Z,5516.00
2018-03-16T13:41:32.763Z,4528.00
2018-03-16T13:43:26.098Z,3268.00
2018-03-16T13:44:26.078Z,2548.00
2018-03-16T13:46:19.471Z,2376.00
2018-03-16T13:47:19.339Z,2440.00
2018-03-16T13:49:13.694Z,3188.00
2018-03-16T13:50:13.621Z,3444.00
2018-03-16T13:52:06.936Z,3428.00
2018-03-16T13:53:06.902Z,3412.00
2018-03-16T13:55:00.193Z,3364.00
2018-03-16T13:56:00.144Z,3404.00
2018-03-16T13:57:53.520Z,3572.00
2018-03-16T13:58:53.445Z,3540.00
2018-03-16T14:00:46.726Z,3524.00
2018-03-16T14:01:46.694Z,3484.00
2018-03-16T14:03:40.005Z,3392.00
2018-03-16T14:04:39.948Z,3388.00
2018-03-16T14:06:33.340Z,2916.00
2018-03-16T14:07:33.235Z,2944.00
2018-03-16T14:09:27.590Z,2576.00
2018-03-16T14:10:27.530Z,2440.00
2018-03-16T14:12:20.867Z,1956.00
2018-03-16T14:13:20.812Z,1836.00
2018-03-16T14:15:14.179Z,1580.00
2018-03-16T14:16:14.108Z,1484.00
2018-03-16T14:18:07.395Z,1356.00
2018-03-16T14:19:07.341Z,1200.00
2018-03-16T14:21:00.656Z,1268.00
2018-03-16T14:22:00.616Z,1300.00
2018-03-16T14:23:53.968Z,1504.00
2018-03-16T14:24:53.870Z,1688.00
2018-03-16T14:26:47.182Z,2072.00
2018-03-16T14:27:47.153Z,2224.00
2018-03-16T14:29:40.467Z,2420.00
2018-03-16T14:30:40.421Z,2576.00
2018-03-16T14:32:33.742Z,2828.00
2018-03-16T14:33:33.686Z,3036.00
2018-03-16T14:35:38.126Z,2924.00
2018-03-16T14:36:38.018Z,3168.00
2018-03-16T14:38:31.316Z,4532.00
2018-03-16T14:39:31.285Z,4804.00
2018-03-16T14:41:24.596Z,4272.00
2018-03-16T14:42:24.561Z,5152.00
2018-03-16T14:44:18.881Z,5212.00
2018-03-16T14:45:18.828Z,5256.00
2018-03-16T14:47:12.111Z,4860.00
2018-03-16T14:48:12.081Z,4520.00
2018-03-16T14:50:05.428Z,4272.00
2018-03-16T14:51:05.357Z,4176.00
2018-03-16T14:52:58.686Z,4388.00
2018-03-16T14:53:58.628Z,4396.00
2018-03-16T14:55:51.940Z,4576.00
2018-03-16T14:56:51.879Z,4684.00
2018-03-16T14:58:45.190Z,4328.00
2018-03-16T14:59:45.145Z,4636.00
2018-03-16T15:01:38.615Z,6052.00
2018-03-16T15:02:38.441Z,5196.00
2018-03-16T15:04:31.761Z,4092.00
2018-03-16T15:05:31.711Z,3776.00
2018-03-16T15:07:25.015Z,2824.00
2018-03-16T15:08:24.982Z,2316.00
2018-03-16T15:10:18.412Z,3324.00
2018-03-16T15:11:18.257Z,3332.00
2018-03-16T15:13:12.598Z,3312.00
2018-03-16T15:14:12.518Z,3016.00
2018-03-16T15:16:05.850Z,2800.00
2018-03-16T15:17:05.800Z,2940.00
2018-03-16T15:18:59.146Z,2580.00
2018-03-16T15:19:59.062Z,2100.00
2018-03-16T15:21:52.383Z,1912.00
2018-03-16T15:22:52.331Z,2224.00
2018-03-16T15:24:45.642Z,2452.00
2018-03-16T15:25:45.611Z,2240.00
2018-03-16T15:27:39.061Z,1532.00
2018-03-16T15:28:38.887Z,1344.00
2018-03-16T15:30:32.209Z,1288.00
2018-03-16T15:31:32.156Z,1188.00
2018-03-16T15:33:26.442Z,1268.00
2018-03-16T15:34:26.423Z,1352.00
2018-03-16T15:36:20.825Z,1584.00
2018-03-16T15:37:20.701Z,1588.00
2018-03-16T15:39:13.996Z,1656.00
2018-03-16T15:40:13.963Z,1628.00
2018-03-16T15:42:07.302Z,1580.00
2018-03-16T15:43:07.213Z,1680.00
2018-03-16T15:45:00.541Z,2092.00
2018-03-16T15:46:00.483Z,1924.00
2018-03-16T15:47:54.814Z,1836.00
2018-03-16T15:48:54.758Z,1888.00
2018-03-16T15:50:48.100Z,1896.00
2018-03-16T15:51:48.026Z,1812.00
2018-03-16T15:53:41.343Z,1660.00
2018-03-16T15:54:41.288Z,1656.00
2018-03-16T15:56:34.630Z,1424.00
2018-03-16T15:57:34.566Z,1324.00
2018-03-16T15:59:28.902Z,1204.00
2018-03-16T16:00:28.837Z,1172.00
2018-03-16T16:02:22.177Z,1012.00
2018-03-16T16:03:22.122Z,952.00
2018-03-16T16:05:16.405Z,1012.00
2018-03-16T16:06:16.366Z,1084.00
2018-03-16T16:08:09.705Z,1204.00
2018-03-16T16:09:09.629Z,1220.00
2018-03-16T16:11:03.002Z,1140.00
2018-03-16T16:12:02.990Z,1172.00
2018-03-16T16:13:56.287Z,1192.00
2018-03-16T16:14:56.242Z,1160.00
2018-03-16T16:16:49.527Z,916.00
2018-03-16T16:17:49.511Z,860.00
2018-03-16T16:19:43.003Z,700.00
2018-03-16T16:20:42.766Z,640.00
2018-03-16T16:22:36.061Z,592.00
2018-03-16T16:23:36.028Z,528.00
2018-03-16T16:25:29.339Z,480.00
2018-03-16T16:26:29.281Z,460.00
2018-03-16T16:28:22.650Z,392.00
2018-03-16T16:29:22.554Z,360.00
2018-03-16T16:31:15.889Z,344.00
2018-03-16T16:32:15.817Z,352.00
2018-03-16T16:34:09.151Z,340.00
2018-03-16T16:35:09.118Z,312.00
2018-03-16T16:37:02.423Z,316.00
2018-03-16T16:38:02.358Z,320.00
2018-03-16T16:39:55.692Z,332.00
2018-03-16T16:40:55.642Z,336.00
2018-03-16T16:42:48.955Z,344.00
2018-03-16T16:43:48.907Z,352.00
2018-03-16T16:45:42.242Z,352.00
2018-03-16T16:46:42.158Z,316.00
2018-03-16T16:48:35.511Z,276.00
2018-03-16T16:49:35.418Z,256.00
2018-03-16T16:51:28.744Z,204.00
2018-03-16T16:52:28.677Z,196.00
2018-03-16T16:54:22.018Z,168.00
2018-03-16T16:55:21.973Z,152.00
2018-03-16T16:57:15.263Z,152.00
2018-03-16T16:58:15.253Z,164.00
2018-03-16T17:00:08.543Z,164.00
2018-03-16T17:01:08.478Z,152.00
2018-03-16T17:03:02.783Z,160.00
2018-03-16T17:04:02.747Z,156.00
2018-03-16T17:05:56.076Z,144.00
2018-03-16T17:06:56.020Z,140.00
2018-03-16T17:08:49.404Z,144.00
2018-03-16T17:09:49.363Z,136.00
2018-03-16T17:11:44.695Z,128.00
2018-03-16T17:12:44.624Z,116.00
2018-03-16T17:14:37.963Z,100.00
2018-03-16T17:15:37.897Z,96.00
2018-03-16T17:17:31.196Z,96.00
2018-03-16T17:18:31.148Z,84.00
2018-03-16T17:20:24.532Z,76.00
2018-03-16T17:21:24.429Z,72.00
2018-03-16T17:23:17.728Z,56.00
2018-03-16T17:24:17.702Z,60.00
2018-03-16T17:26:11.005Z,48.00
2018-03-16T17:27:10.945Z,52.00
2018-03-16T17:29:05.261Z,44.00
2018-03-16T17:30:05.200Z,32.00
2018-03-16T17:31:58.544Z,28.00
2018-03-16T17:32:58.471Z,24.00
2018-03-16T17:34:52.794Z,20.00
2018-03-16T17:35:52.741Z,16.00
2018-03-16T17:37:53.874Z,16.00
2018-03-16T17:38:53.809Z,16.00
2018-03-16T17:40:39.457Z,12.00
2018-03-16T17:41:39.540Z,12.00
2018-03-16T17:43:32.683Z,8.00
2018-03-16T17:44:32.633Z,8.00
2018-03-16T17:46:26.988Z,4.00
2018-03-16T17:47:26.902Z,4.00
2018-03-16T17:49:22.198Z,4.00
2018-03-16T17:50:22.168Z,4.00
2018-03-16T17:52:16.104Z,0.00
2018-03-16T17:53:15.424Z,0.00
2018-03-16T17:55:08.847Z,4.00
2018-03-16T17:56:08.704Z,4.00
2018-03-16T17:58:02.025Z,0.00
2018-03-16T17:59:01.964Z,0.00
2018-03-16T18:00:55.282Z,0.00
2018-03-16T18:01:55.224Z,0.00
2018-03-16T18:03:48.575Z,0.00
2018-03-16T18:04:48.506Z,0.00
2018-03-16T18:06:41.858Z,0.00
2018-03-16T18:07:41.775Z,0.00
2018-03-16T18:09:35.071Z,0.00
2018-03-16T18:10:35.019Z,0.00